Time;durP1;ratioP1;P1;durP2;ratioP2;P2;SDS_P1;SDS_P2;PMS_P1;PMS_P2;Temp;Humidity;BMP_temperature;BMP_pressure;BME280_temperature;BME280_humidity;BME280_pressure;Samples;Min_cycle;Max_cycle;Signal;HPM_P1;HPM_P2
2021/04/02 00:00:39;;;;;;;16.45;3.85;;;8.60;99.90;;;;;;5033966;28;20056;-82
2021/04/02 00:03:14;;;;;;;13.25;4.53;;;8.60;99.90;;;;;;5051851;28;20371;-86
2021/04/02 00:05:40;;;;;;;18.80;5.25;;;8.60;99.90;;;;;;5051592;28;20032;-83
2021/04/02 00:08:06;;;;;;;15.88;4.80;;;8.50;99.90;;;;;;5050145;28;20045;-81
2021/04/02 00:10:40;;;;;;;20.88;5.68;;;8.50;99.90;;;;;;5050351;28;20024;-84
2021/04/02 00:13:06;;;;;;;16.90;5.22;;;8.50;99.90;;;;;;5050159;28;20032;-84
2021/04/02 00:15:32;;;;;;;23.98;6.90;;;8.50;99.90;;;;;;5051400;28;20025;-82
2021/04/02 00:17:57;;;;;;;15.25;5.57;;;8.50;99.90;;;;;;5033478;28;20030;-84
2021/04/02 00:20:23;;;;;;;19.55;5.38;;;8.50;99.90;;;;;;5016950;28;20037;-84
2021/04/02 00:22:49;;;;;;;22.27;6.85;;;8.40;99.90;;;;;;5050191;28;20029;-82
2021/04/02 00:25:15;;;;;;;24.05;7.40;;;8.40;99.90;;;;;;5051198;28;20480;-83
2021/04/02 00:27:41;;;;;;;26.52;6.72;;;8.40;99.90;;;;;;5049761;28;20029;-82
2021/04/02 00:30:20;;;;;;;20.45;7.57;;;8.40;99.90;;;;;;5049858;28;20041;-84
2021/04/02 00:32:47;;;;;;;30.50;7.88;;;8.40;99.90;;;;;;5051249;28;20357;-83
2021/04/02 00:35:13;;;;;;;28.23;8.23;;;8.30;99.90;;;;;;5049722;28;20029;-83
2021/04/02 00:37:40;;;;;;;30.77;8.95;;;8.30;99.90;;;;;;5049170;28;20021;-82
2021/04/02 00:40:22;;;;;;;26.23;8.43;;;8.30;99.90;;;;;;5049569;28;20030;-82
2021/04/02 00:42:49;;;;;;;28.23;9.13;;;8.30;99.90;;;;;;5049203;28;20223;-85
2021/04/02 00:45:17;;;;;;;31.10;8.23;;;8.30;99.90;;;;;;5050380;28;20075;-84
2021/04/02 00:47:44;;;;;;;24.30;8.57;;;8.20;99.90;;;;;;5050684;28;20025;-83
2021/04/02 00:50:39;;;;;;;26.90;8.45;;;8.20;99.90;;;;;;5049360;28;20064;-82
2021/04/02 00:53:06;;;;;;;25.50;8.60;;;8.20;99.90;;;;;;5047097;28;20135;-84
2021/04/02 00:55:32;;;;;;;24.50;9.20;;;8.20;99.90;;;;;;5050590;28;20020;-81
2021/04/02 00:57:59;;;;;;;24.55;8.55;;;8.20;99.90;;;;;;5031729;28;20083;-82
2021/04/02 01:00:25;;;;;;;25.50;8.70;;;8.20;99.90;;;;;;5049050;28;20530;-82
2021/04/02 01:02:52;;;;;;;29.08;9.20;;;8.10;99.90;;;;;;5048971;28;20067;-84
2021/04/02 01:05:25;;;;;;;23.90;8.52;;;8.10;99.90;;;;;;5050365;28;20104;-85
2021/04/02 01:07:55;;;;;;;39.03;9.30;;;8.10;99.90;;;;;;5049079;28;20060;-85
2021/04/02 01:10:22;;;;;;;29.38;8.80;;;8.10;99.90;;;;;;5050223;28;20034;-84
2021/04/02 01:12:55;;;;;;;26.55;9.57;;;8.10;99.90;;;;;;5032987;28;20086;-83
2021/04/02 01:15:29;;;;;;;28.30;9.30;;;8.00;99.90;;;;;;5048841;28;20108;-82
2021/04/02 01:17:56;;;;;;;27.13;10.30;;;8.00;99.90;;;;;;5048927;28;20032;-84
2021/04/02 01:20:29;;;;;;;26.63;9.68;;;8.00;99.90;;;;;;5048736;28;20074;-84
2021/04/02 01:22:59;;;;;;;23.85;8.73;;;8.00;99.90;;;;;;5048807;28;20098;-83
2021/04/02 01:25:38;;;;;;;37.20;9.07;;;8.00;99.90;;;;;;5049050;28;20052;-82
2021/04/02 01:28:31;;;;;;;22.55;8.95;;;8.00;99.90;;;;;;5048499;28;20059;-83
2021/04/02 01:31:00;;;;;;;23.25;8.30;;;8.00;99.90;;;;;;5048692;28;20091;-83
2021/04/02 01:33:27;;;;;;;25.50;8.38;;;7.90;99.90;;;;;;5032357;28;20033;-84
2021/04/02 01:35:55;;;;;;;26.60;9.05;;;7.90;99.90;;;;;;5048755;28;20025;-85
2021/04/02 01:38:27;;;;;;;22.30;7.72;;;7.90;99.90;;;;;;5049854;28;20051;-84
2021/04/02 01:40:57;;;;;;;22.65;7.97;;;7.90;99.90;;;;;;5049989;28;20033;-85
2021/04/02 01:43:48;;;;;;;28.13;7.90;;;7.90;99.90;;;;;;5048699;28;20071;-85
2021/04/02 01:46:17;;;;;;;31.38;9.18;;;7.90;99.90;;;;;;5049850;28;20100;-84
2021/04/02 01:48:45;;;;;;;33.25;7.75;;;7.90;99.90;;;;;;5049403;28;20025;-84
2021/04/02 01:51:12;;;;;;;27.42;7.63;;;7.90;99.90;;;;;;5031719;28;20025;-81
2021/04/02 01:53:43;;;;;;;25.27;8.48;;;7.90;99.90;;;;;;5048313;28;20056;-83
2021/04/02 01:56:09;;;;;;;38.95;9.07;;;7.80;99.90;;;;;;5048371;28;20021;-84
2021/04/02 01:58:40;;;;;;;26.98;7.10;;;7.90;99.90;;;;;;5048179;28;20422;-85
2021/04/02 02:01:07;;;;;;;22.05;7.88;;;7.80;99.90;;;;;;5048033;28;20061;-85
2021/04/02 02:03:35;;;;;;;26.58;7.82;;;7.90;99.90;;;;;;5031455;28;20032;-82
2021/04/02 02:06:03;;;;;;;24.35;7.78;;;7.80;99.90;;;;;;5048103;28;20425;-84
2021/04/02 02:08:30;;;;;;;29.98;7.47;;;7.80;99.90;;;;;;5030558;28;20033;-84
2021/04/02 02:11:07;;;;;;;32.05;8.93;;;7.80;99.90;;;;;;5047957;28;20025;-82
2021/04/02 02:13:33;;;;;;;25.23;8.18;;;7.80;99.90;;;;;;5049381;28;20388;-85
2021/04/02 02:16:02;;;;;;;21.88;6.85;;;7.80;99.90;;;;;;5047957;28;20025;-84
2021/04/02 02:18:29;;;;;;;27.73;8.82;;;7.80;99.90;;;;;;5047942;28;20029;-84
2021/04/02 02:20:55;;;;;;;36.50;8.70;;;7.70;99.90;;;;;;5031076;28;20036;-82
2021/04/02 02:23:22;;;;;;;23.77;8.60;;;7.70;99.90;;;;;;5014854;28;20120;-82
2021/04/02 02:25:48;;;;;;;24.05;8.10;;;7.70;99.90;;;;;;5014785;28;20025;-83
2021/04/02 02:28:14;;;;;;;35.45;8.60;;;7.70;99.90;;;;;;5048874;28;20389;-83
2021/04/02 02:30:42;;;;;;;30.67;10.18;;;7.70;99.90;;;;;;5030816;28;20053;-82
2021/04/02 02:33:08;;;;;;;30.35;8.00;;;7.70;99.90;;;;;;5047747;28;20051;-84
2021/04/02 02:35:33;;;;;;;25.67;7.55;;;7.70;99.90;;;;;;5047848;28;20440;-84
2021/04/02 02:38:01;;;;;;;39.65;9.43;;;7.60;99.90;;;;;;5030846;28;20078;-85
2021/04/02 02:40:30;;;;;;;27.83;8.18;;;7.60;99.90;;;;;;5047349;28;20040;-82
2021/04/02 02:42:57;;;;;;;21.90;6.80;;;7.60;99.90;;;;;;5048719;28;20025;-83
2021/04/02 02:45:24;;;;;;;24.17;7.80;;;7.60;99.90;;;;;;5047297;28;20029;-84
2021/04/02 02:47:50;;;;;;;28.02;8.10;;;7.60;99.90;;;;;;5030628;28;20029;-82
2021/04/02 02:50:26;;;;;;;25.50;7.85;;;7.60;99.90;;;;;;5047024;28;20032;-84
2021/04/02 02:52:53;;;;;;;28.35;8.43;;;7.60;99.90;;;;;;5047402;28;20067;-84
2021/04/02 02:55:21;;;;;;;33.63;8.68;;;7.60;99.90;;;;;;5047264;28;20256;-82
2021/04/02 02:57:50;;;;;;;26.08;8.50;;;7.50;99.90;;;;;;5047006;28;20025;-84
2021/04/02 03:00:23;;;;;;;32.70;8.60;;;7.50;99.90;;;;;;5046920;28;20582;-82
2021/04/02 03:02:50;;;;;;;31.88;7.82;;;7.50;99.90;;;;;;5048312;28;20387;-83
2021/04/02 03:05:20;;;;;;;27.92;8.15;;;7.50;99.90;;;;;;5047107;28;20111;-84
2021/04/02 03:07:50;;;;;;;23.17;7.07;;;7.50;99.90;;;;;;5046859;28;20111;-84
2021/04/02 03:10:16;;;;;;;24.98;6.85;;;7.50;99.90;;;;;;5046971;28;20021;-82
2021/04/02 03:12:44;;;;;;;33.25;8.80;;;7.50;99.90;;;;;;5030287;28;20025;-83
2021/04/02 03:15:13;;;;;;;24.70;6.70;;;7.50;99.90;;;;;;5048176;28;20036;-82
2021/04/02 03:17:41;;;;;;;;;;;7.40;99.90;;;;;;5048547;28;20082;-82
2021/04/02 03:20:08;;;;;;;28.77;7.60;;;7.40;99.90;;;;;;5047981;28;20004;-84
2021/04/02 03:22:35;;;;;;;31.60;9.45;;;7.40;99.90;;;;;;5046696;28;20025;-82
2021/04/02 03:25:07;;;;;;;17.27;6.97;;;7.40;99.90;;;;;;5046840;28;20360;-82
2021/04/02 03:27:33;;;;;;;25.27;7.75;;;7.40;99.90;;;;;;5047105;28;20499;-85
2021/04/02 03:29:59;;;;;;;33.65;7.13;;;7.30;99.90;;;;;;5046312;28;20053;-82
2021/04/02 03:32:27;;;;;;;27.75;7.05;;;7.30;99.90;;;;;;5014133;28;20476;-85
2021/04/02 03:34:55;;;;;;;24.85;7.47;;;7.30;99.90;;;;;;5030156;28;20543;-82
2021/04/02 03:37:22;;;;;;;29.17;7.47;;;7.30;99.90;;;;;;5046627;28;20029;-84
2021/04/02 03:39:49;;;;;;;24.50;6.63;;;7.30;99.90;;;;;;5030242;28;20032;-83
2021/04/02 03:42:17;;;;;;;28.02;7.15;;;7.20;99.90;;;;;;5047801;28;20074;-84
2021/04/02 03:44:44;;;;;;;26.73;7.25;;;7.20;99.90;;;;;;5046301;28;20380;-85
2021/04/02 03:47:17;;;;;;;26.67;6.35;;;7.20;99.90;;;;;;5046499;28;20399;-82
2021/04/02 03:49:44;;;;;;;24.30;5.75;;;7.20;99.90;;;;;;5047703;28;20025;-82
2021/04/02 03:52:15;;;;;;;25.50;6.93;;;7.20;99.90;;;;;;5046432;28;20495;-84
2021/04/02 03:54:42;;;;;;;24.55;6.82;;;7.20;99.90;;;;;;5047678;28;20033;-82
2021/04/02 03:57:12;;;;;;;27.02;6.40;;;7.10;99.90;;;;;;5047514;28;20163;-84
2021/04/02 03:59:39;;;;;;;;;;;7.10;99.90;;;;;;5047974;28;20021;-85
2021/04/02 04:02:08;;;;;;;29.75;6.70;;;7.10;99.90;;;;;;5046242;28;19909;-84
2021/04/02 04:04:35;;;;;;;23.55;6.03;;;7.10;99.90;;;;;;5046305;28;20032;-83
2021/04/02 04:07:04;;;;;;;17.80;5.47;;;7.10;99.90;;;;;;5046253;28;20041;-83
2021/04/02 04:09:32;;;;;;;23.50;6.20;;;7.10;99.90;;;;;;5046313;28;20029;-83
2021/04/02 04:12:01;;;;;;;23.67;6.40;;;7.10;99.90;;;;;;5030007;28;20115;-82
2021/04/02 04:14:28;;;;;;;27.40;6.05;;;7.10;99.90;;;;;;5047444;28;20052;-83
2021/04/02 04:16:57;;;;;;;25.42;6.82;;;7.00;99.90;;;;;;5029670;28;20025;-85
2021/04/02 04:19:24;;;;;;;21.35;6.38;;;7.00;99.90;;;;;;5047403;28;20025;-84
2021/04/02 04:21:52;;;;;;;22.63;5.68;;;7.00;99.90;;;;;;5046131;28;20524;-84
2021/04/02 04:24:21;;;;;;;24.15;7.55;;;7.00;99.90;;;;;;5046169;28;20140;-84
2021/04/02 04:26:49;;;;;;;27.77;6.10;;;7.00;99.90;;;;;;5047285;28;20035;-82
2021/04/02 04:29:18;;;;;;;21.70;6.20;;;7.00;99.90;;;;;;5045832;28;20427;-84
2021/04/02 04:31:46;;;;;;;30.48;5.90;;;7.00;99.90;;;;;;5046620;28;20495;-83
2021/04/02 04:34:14;;;;;;;30.77;5.57;;;7.00;99.90;;;;;;5051169;28;20021;-81
2021/04/02 04:36:43;;;;;;;29.42;7.30;;;7.10;99.90;;;;;;5051010;28;20013;-83
2021/04/02 04:39:09;;;;;;;25.67;7.00;;;7.10;99.90;;;;;;5049580;28;20509;-85
2021/04/02 04:41:35;;;;;;;17.30;4.72;;;7.10;99.90;;;;;;5033077;28;20119;-83
2021/04/02 04:44:03;;;;;;;22.33;5.95;;;7.10;99.90;;;;;;5050996;28;20025;-83
2021/04/02 04:46:30;;;;;;;24.90;5.43;;;7.10;99.90;;;;;;5051394;28;20037;-85
2021/04/02 04:48:56;;;;;;;29.55;5.93;;;7.10;99.90;;;;;;5032875;28;20033;-86
2021/04/02 04:51:24;;;;;;;29.60;5.85;;;7.20;99.90;;;;;;5050719;28;20054;-83
2021/04/02 04:53:55;;;;;;;30.08;6.30;;;7.20;99.90;;;;;;5049173;28;20029;-83
2021/04/02 04:56:22;;;;;;;20.65;5.45;;;7.30;99.90;;;;;;5050674;28;20062;-82
2021/04/02 04:58:51;;;;;;;22.02;5.63;;;7.30;99.90;;;;;;5050599;28;20123;-85
2021/04/02 05:01:19;;;;;;;21.10;6.50;;;7.20;99.90;;;;;;5032891;28;20032;-83
2021/04/02 05:03:45;;;;;;;18.52;5.35;;;7.20;99.90;;;;;;5032825;28;20337;-83
2021/04/02 05:06:13;;;;;;;23.20;6.60;;;7.30;99.90;;;;;;5032679;28;20571;-84
2021/04/02 05:08:45;;;;;;;22.13;6.78;;;7.30;99.90;;;;;;5032710;28;20053;-83
2021/04/02 05:11:21;;;;;;;21.75;5.75;;;7.20;99.90;;;;;;5050381;28;20020;-82
2021/04/02 05:13:50;;;;;;;27.92;6.60;;;7.20;99.90;;;;;;5049239;28;20472;-86
2021/04/02 05:16:16;;;;;;;28.77;6.00;;;7.30;99.90;;;;;;5050283;28;20050;-85
2021/04/02 05:18:46;;;;;;;23.92;6.55;;;7.30;99.90;;;;;;5016050;28;20078;-84
2021/04/02 05:21:12;;;;;;;24.67;7.22;;;7.30;99.90;;;;;;5050330;28;20028;-84
2021/04/02 05:23:38;;;;;;;24.27;6.05;;;7.30;99.90;;;;;;5032474;28;20025;-81
2021/04/02 05:26:03;;;;;;;25.88;7.40;;;7.30;99.90;;;;;;5032522;28;20048;-84
2021/04/02 05:28:29;;;;;;;26.55;8.43;;;7.30;99.90;;;;;;5015458;28;20037;-85
2021/04/02 05:30:55;;;;;;;35.05;6.93;;;7.40;99.90;;;;;;5050243;28;20089;-83
2021/04/02 05:33:20;;;;;;;23.90;7.25;;;7.40;99.90;;;;;;5048994;28;20451;-82
2021/04/02 05:35:46;;;;;;;27.60;7.50;;;7.40;99.90;;;;;;5048572;28;20506;-83
2021/04/02 05:38:12;;;;;;;30.42;7.05;;;7.50;99.90;;;;;;5048705;28;20033;-81
2021/04/02 05:40:38;;;;;;;22.73;6.80;;;7.40;99.90;;;;;;5048650;28;20029;-86
2021/04/02 05:43:15;;;;;;;24.70;7.07;;;7.40;99.90;;;;;;5048832;28;20204;-85
2021/04/02 05:45:41;;;;;;;31.65;8.90;;;7.40;99.90;;;;;;5048303;28;20103;-84
2021/04/02 05:48:09;;;;;;;23.75;7.43;;;7.40;99.90;;;;;;5049802;28;20108;-83
2021/04/02 05:50:37;;;;;;;23.13;6.65;;;7.30;99.90;;;;;;5048214;28;20575;-86
2021/04/02 05:53:08;;;;;;;23.65;7.00;;;7.30;99.90;;;;;;5048415;28;20052;-83
2021/04/02 05:55:37;;;;;;;24.88;7.25;;;7.30;99.90;;;;;;5049557;28;20041;-84
2021/04/02 05:58:05;;;;;;;19.37;6.57;;;7.20;99.90;;;;;;5048047;28;20036;-84
2021/04/02 06:00:32;;;;;;;29.27;8.07;;;7.10;99.90;;;;;;5048282;28;20671;-83
2021/04/02 06:02:59;;;;;;;29.83;7.82;;;7.10;99.90;;;;;;5048141;28;20060;-82
2021/04/02 06:05:25;;;;;;;23.08;6.50;;;7.10;99.90;;;;;;5049616;28;20029;-83
2021/04/02 06:07:55;;;;;;;29.02;6.80;;;7.00;99.90;;;;;;5047701;28;20391;-82
2021/04/02 06:10:21;;;;;;;29.80;6.00;;;7.10;99.90;;;;;;5048054;28;20430;-84
2021/04/02 06:12:47;;;;;;;20.67;7.57;;;7.10;99.90;;;;;;5031576;28;20025;-83
2021/04/02 06:15:14;;;;;;;26.45;6.57;;;7.10;99.90;;;;;;5048035;28;20480;-84
2021/04/02 06:18:06;;;;;;;23.73;6.82;;;7.10;99.90;;;;;;5047919;28;20029;-83
2021/04/02 06:20:37;;;;;;;24.40;8.15;;;7.10;99.90;;;;;;5047742;28;20407;-85
2021/04/02 06:23:10;;;;;;;23.17;6.82;;;7.10;99.90;;;;;;5047760;28;20120;-86
2021/04/02 06:25:39;;;;;;;28.88;6.72;;;7.20;99.90;;;;;;5047628;28;20052;-83
2021/04/02 06:28:13;;;;;;;26.30;5.93;;;7.30;99.90;;;;;;5048622;28;20048;-83
2021/04/02 06:30:42;;;;;;;22.50;6.13;;;7.40;99.90;;;;;;5047328;28;20049;-84
2021/04/02 06:33:09;;;;;;;21.73;5.20;;;7.60;99.90;;;;;;5047407;28;20038;-83
2021/04/02 06:35:44;;;;;;;27.00;6.30;;;7.70;99.90;;;;;;5030845;28;20056;-83
2021/04/02 06:38:10;;;;;;;21.65;5.97;;;7.80;99.90;;;;;;5048555;28;20078;-83
2021/04/02 06:40:36;;;;;;;10.15;4.00;;;7.90;99.90;;;;;;5047115;28;20120;-83
2021/04/02 06:43:03;;;;;;;14.52;4.10;;;8.00;99.90;;;;;;5047569;28;20561;-84
2021/04/02 06:45:30;;;;;;;16.83;3.70;;;8.10;99.90;;;;;;5047189;28;20036;-85
2021/04/02 06:48:12;;;;;;;12.07;3.28;;;8.10;99.90;;;;;;5030431;28;20036;-82
2021/04/02 06:50:38;;;;;;;14.15;2.70;;;8.10;99.90;;;;;;5047229;28;20606;-84
2021/04/02 06:53:05;;;;;;;15.32;2.42;;;8.10;99.90;;;;;;5049038;28;20100;-83
2021/04/02 06:55:31;;;;;;;10.95;2.80;;;8.20;99.80;;;;;;5047249;28;20116;-82
2021/04/02 06:58:05;;;;;;;11.10;2.85;;;8.20;99.60;;;;;;5047503;28;20427;-84
2021/04/02 07:00:33;;;;;;;12.32;2.33;;;8.20;99.30;;;;;;5047247;28;20036;-79
2021/04/02 07:02:59;;;;;;;14.35;2.55;;;8.20;99.00;;;;;;5030722;28;20025;-83
2021/04/02 07:05:26;;;;;;;8.75;1.77;;;8.20;99.00;;;;;;5030583;28;20336;-84
2021/04/02 07:08:01;;;;;;;13.80;2.58;;;8.30;98.90;;;;;;5030357;28;20045;-80
2021/04/02 07:10:28;;;;;;;6.97;2.08;;;8.30;98.70;;;;;;5047883;28;20025;-83
2021/04/02 07:12:55;;;;;;;21.20;2.90;;;8.40;98.80;;;;;;5013782;28;20021;-82
2021/04/02 07:15:22;;;;;;;10.25;2.15;;;8.40;98.60;;;;;;5047839;28;20463;-83
2021/04/02 07:17:49;;;;;;;10.00;2.05;;;8.60;98.30;;;;;;5046804;28;20488;-84
2021/04/02 07:20:15;;;;;;;10.25;2.13;;;8.60;98.00;;;;;;5030585;28;20033;-84
2021/04/02 07:22:43;;;;;;;11.23;2.58;;;8.70;97.70;;;;;;5030182;28;20039;-82
2021/04/02 07:25:10;;;;;;;18.25;2.38;;;8.80;97.50;;;;;;5048341;28;20048;-83
2021/04/02 07:27:36;;;;;;;12.80;2.15;;;8.80;97.30;;;;;;5046932;28;20025;-85
2021/04/02 07:30:09;;;;;;;13.43;2.88;;;8.80;97.10;;;;;;5046335;28;20083;-83
2021/04/02 07:32:40;;;;;;;7.80;1.77;;;8.90;96.90;;;;;;5046492;28;20120;-83
2021/04/02 07:35:07;;;;;;;12.40;2.30;;;8.90;96.80;;;;;;5046509;28;20119;-83
2021/04/02 07:37:39;;;;;;;5.32;1.70;;;9.00;96.90;;;;;;5046447;28;20488;-83
2021/04/02 07:40:09;;;;;;;13.73;2.53;;;9.00;96.70;;;;;;5046777;28;20032;-69
2021/04/02 07:42:35;;;;;;;12.45;2.08;;;9.10;96.30;;;;;;5047580;28;20124;-86
2021/04/02 07:45:03;;;;;;;9.77;1.80;;;9.10;96.40;;;;;;5046251;28;20541;-82
2021/04/02 07:47:29;;;;;;;13.80;2.00;;;9.20;96.40;;;;;;5046510;28;20041;-81
2021/04/02 07:50:02;;;;;;;10.50;1.83;;;9.40;96.20;;;;;;5030012;28;20040;-84
2021/04/02 07:52:37;;;;;;;10.65;1.60;;;9.40;95.80;;;;;;5031145;28;20098;-84
2021/04/02 07:55:14;;;;;;;9.10;1.73;;;9.50;95.30;;;;;;5047359;28;20022;-83
2021/04/02 07:57:56;;;;;;;10.15;1.92;;;9.50;95.20;;;;;;5047528;28;20354;-81
2021/04/02 08:00:27;;;;;;;17.35;2.10;;;9.60;95.00;;;;;;5048116;28;20035;-83
2021/04/02 08:03:21;;;;;;;7.50;1.38;;;9.90;95.90;;;;;;5030589;28;20029;-83
2021/04/02 08:06:00;;;;;;;11.90;1.70;;;10.70;95.60;;;;;;5047097;28;20040;-83
2021/04/02 08:08:27;;;;;;;6.68;1.55;;;11.00;94.40;;;;;;5050796;28;20036;-84
2021/04/02 08:11:19;;;;;;;9.32;1.90;;;11.40;94.50;;;;;;5050363;28;20071;-83
2021/04/02 08:14:11;;;;;;;9.98;2.15;;;11.70;93.40;;;;;;5049893;28;20088;-82
2021/04/02 08:16:56;;;;;;;8.25;1.88;;;12.20;93.40;;;;;;5049888;28;20032;-83
2021/04/02 08:19:32;;;;;;;8.38;1.58;;;13.10;93.90;;;;;;5051614;28;20051;-81
2021/04/02 08:21:59;;;;;;;8.80;1.60;;;14.60;93.90;;;;;;5049996;28;20484;-84
2021/04/02 08:24:30;;;;;;;8.45;1.52;;;16.10;92.20;;;;;;5051792;28;20028;-85
2021/04/02 08:26:56;;;;;;;9.25;1.75;;;17.40;88.20;;;;;;5049766;28;20032;-85
2021/04/02 08:29:25;;;;;;;6.38;1.73;;;18.70;85.40;;;;;;5032158;28;20053;-81
2021/04/02 08:31:53;;;;;;;6.55;1.52;;;19.60;78.60;;;;;;5050450;28;20025;-81
2021/04/02 08:34:21;;;;;;;9.27;1.42;;;19.50;73.60;;;;;;5050855;28;20107;-83
2021/04/02 08:36:49;;;;;;;9.98;2.20;;;19.10;71.70;;;;;;5049020;28;20591;-85
2021/04/02 08:39:17;;;;;;;12.05;2.63;;;18.40;70.00;;;;;;5032556;28;20071;-86
2021/04/02 08:41:43;;;;;;;15.20;1.90;;;17.60;69.10;;;;;;5033029;28;20049;-84
2021/04/02 08:44:09;;;;;;;8.63;2.45;;;16.90;69.30;;;;;;5032139;28;20484;-84
2021/04/02 08:46:37;;;;;;;7.40;1.45;;;16.30;69.30;;;;;;5032248;28;20040;-84
2021/04/02 08:49:04;;;;;;;6.88;1.52;;;15.60;69.30;;;;;;5049897;28;20051;-83
2021/04/02 08:51:30;;;;;;;8.10;1.73;;;15.10;71.40;;;;;;5049874;28;20036;-84
2021/04/02 08:53:56;;;;;;;7.65;2.67;;;15.60;74.10;;;;;;5048768;28;20496;-84
2021/04/02 08:56:23;;;;;;;7.53;1.13;;;16.70;74.50;;;;;;5048654;28;20108;-83
2021/04/02 08:58:50;;;;;;;8.68;2.03;;;17.60;73.30;;;;;;5049074;28;20025;-81
2021/04/02 09:01:17;;;;;;;7.97;1.55;;;18.60;71.30;;;;;;5048951;28;20029;-85
2021/04/02 09:03:44;;;;;;;13.45;2.05;;;19.20;69.10;;;;;;5048266;28;20112;-86
2021/04/02 09:06:11;;;;;;;12.63;1.80;;;19.90;67.70;;;;;;5032375;28;20036;-85
2021/04/02 09:08:37;;;;;;;6.65;1.50;;;20.90;65.80;;;;;;5047840;28;20021;-86
2021/04/02 09:11:11;;;;;;;20.58;2.47;;;21.00;63.30;;;;;;5031154;28;20132;-84
2021/04/02 09:13:38;;;;;;;7.75;1.92;;;21.40;63.20;;;;;;5031779;28;20035;-84
2021/04/02 09:16:14;;;;;;;7.97;1.55;;;22.40;63.00;;;;;;5031651;28;20403;-85
2021/04/02 09:18:55;;;;;;;6.70;1.35;;;23.40;61.20;;;;;;5047583;28;20032;-83
2021/04/02 09:21:23;;;;;;;10.20;1.83;;;24.40;58.90;;;;;;5048198;28;20025;-84
2021/04/02 09:23:53;;;;;;;7.60;1.63;;;25.00;56.50;;;;;;5048272;28;20022;-84
2021/04/02 09:26:20;;;;;;;4.97;1.17;;;24.90;56.00;;;;;;5031913;28;20495;-84
2021/04/02 09:28:47;;;;;;;6.30;1.77;;;25.10;54.50;;;;;;5031477;28;20057;-86
2021/04/02 09:31:26;;;;;;;9.63;1.83;;;25.00;53.10;;;;;;5047451;28;20036;-83
2021/04/02 09:33:57;;;;;;;7.40;1.42;;;25.00;51.50;;;;;;5047089;28;20075;-81
2021/04/02 09:36:26;;;;;;;6.88;1.52;;;24.90;51.70;;;;;;5047306;28;20025;-83
2021/04/02 09:39:04;;;;;;;7.43;1.42;;;25.10;51.60;;;;;;5049366;28;20033;-86
2021/04/02 09:41:30;;;;;;;8.32;1.35;;;25.20;49.80;;;;;;5049027;28;20025;-84
2021/04/02 09:43:55;;;;;;;6.78;1.40;;;24.60;50.20;;;;;;5031479;28;20029;-84
2021/04/02 09:46:29;;;;;;;6.22;1.50;;;24.40;50.90;;;;;;5049563;28;20017;-84
2021/04/02 09:49:17;;;;;;;6.70;1.83;;;24.60;49.90;;;;;;5047744;28;20384;-81
2021/04/02 09:51:55;;;;;;;7.43;1.63;;;24.80;49.10;;;;;;5047936;28;20059;-85
2021/04/02 09:54:24;;;;;;;4.85;1.40;;;25.30;49.10;;;;;;5049943;28;20013;-83
2021/04/02 09:56:51;;;;;;;7.60;1.58;;;25.30;48.70;;;;;;5031293;28;20356;-84
2021/04/02 09:59:17;;;;;;;6.80;2.10;;;25.40;49.00;;;;;;5048697;28;20040;-84
2021/04/02 10:01:44;;;;;;;7.28;1.58;;;25.70;48.40;;;;;;5046805;28;20029;-85
2021/04/02 10:04:12;;;;;;;10.63;2.35;;;26.40;48.10;;;;;;5014585;28;20032;-83
2021/04/02 10:06:38;;;;;;;4.63;1.58;;;26.90;46.70;;;;;;5030835;28;20237;-85
2021/04/02 10:09:06;;;;;;;7.60;1.50;;;26.60;46.10;;;;;;5046998;28;20112;-86
2021/04/02 10:11:33;;;;;;;9.10;1.70;;;26.40;46.60;;;;;;5049131;28;20097;-83
2021/04/02 10:13:59;;;;;;;5.93;1.60;;;26.60;46.30;;;;;;5030539;28;20028;-85
2021/04/02 10:16:25;;;;;;;17.60;4.30;;;27.20;46.00;;;;;;5031220;28;20476;-85
2021/04/02 10:18:51;;;;;;;7.20;1.85;;;27.70;45.70;;;;;;5047859;28;20468;-86
2021/04/02 10:21:18;;;;;;;8.60;1.83;;;27.90;45.10;;;;;;5048263;28;20021;-68
2021/04/02 10:23:44;;;;;;;7.32;2.28;;;28.20;44.70;;;;;;5050403;28;20107;-84
2021/04/02 10:26:11;;;;;;;6.15;1.70;;;28.30;44.70;;;;;;5031552;28;20067;-83
2021/04/02 10:28:37;;;;;;;9.68;1.73;;;28.20;43.90;;;;;;5048719;28;20024;-87
2021/04/02 10:31:03;;;;;;;7.32;1.83;;;27.50;42.80;;;;;;5046797;28;20025;-85
2021/04/02 10:33:29;;;;;;;6.82;1.60;;;26.50;42.80;;;;;;5050698;28;20021;-83
2021/04/02 10:35:55;;;;;;;5.18;1.25;;;26.20;43.80;;;;;;5031651;28;20028;-84
2021/04/02 10:38:21;;;;;;;9.48;1.58;;;26.00;43.50;;;;;;5013616;28;20436;-84
2021/04/02 10:40:47;;;;;;;6.80;1.75;;;26.00;44.10;;;;;;5030678;28;20476;-85
2021/04/02 10:43:13;;;;;;;9.95;1.80;;;26.50;44.40;;;;;;5048002;28;20502;-84
2021/04/02 10:45:39;;;;;;;6.97;1.92;;;27.10;44.10;;;;;;5030137;28;20049;-86
2021/04/02 10:48:05;;;;;;;7.43;1.38;;;27.60;43.80;;;;;;5030156;28;20043;-87
2021/04/02 10:50:31;;;;;;;6.43;1.58;;;28.10;43.10;;;;;;5013753;28;20033;-85
2021/04/02 10:52:57;;;;;;;5.20;1.45;;;28.40;42.70;;;;;;5045987;28;20080;-84
2021/04/02 10:55:23;;;;;;;7.07;2.20;;;28.40;42.20;;;;;;5014052;28;20025;-84
2021/04/02 10:57:50;;;;;;;5.70;1.45;;;28.20;41.90;;;;;;5046494;28;20060;-85
2021/04/02 11:00:18;;;;;;;6.60;2.05;;;28.10;41.90;;;;;;5030070;28;20029;-86
2021/04/02 11:02:44;;;;;;;6.60;1.33;;;28.30;41.50;;;;;;5030306;28;20037;-85
2021/04/02 11:05:11;;;;;;;4.28;1.30;;;27.80;40.60;;;;;;5048453;28;20052;-85
2021/04/02 11:07:38;;;;;;;8.15;1.67;;;26.70;39.90;;;;;;5047652;28;20386;-84
2021/04/02 11:10:05;;;;;;;6.45;1.98;;;25.80;40.70;;;;;;5046913;28;20036;-83
2021/04/02 11:12:31;;;;;;;6.78;1.50;;;25.50;41.20;;;;;;5045810;28;20101;-86
2021/04/02 11:14:57;;;;;;;11.68;1.67;;;24.70;40.90;;;;;;5028563;28;20101;-84
2021/04/02 11:17:24;;;;;;;7.80;2.92;;;24.20;42.40;;;;;;5047099;28;20017;-87
2021/04/02 11:19:51;;;;;;;11.60;1.98;;;24.00;42.40;;;;;;5045361;28;20029;-85
2021/04/02 11:22:17;;;;;;;4.47;1.30;;;23.60;42.80;;;;;;5013499;28;20052;-83
2021/04/02 11:24:42;;;;;;;6.70;1.35;;;23.40;42.70;;;;;;5049370;28;20464;-86
2021/04/02 11:27:09;;;;;;;6.00;1.30;;;23.00;42.80;;;;;;5045764;28;20078;-84
2021/04/02 11:29:35;;;;;;;7.47;1.67;;;22.70;43.20;;;;;;5045058;28;20405;-84
2021/04/02 11:32:02;;;;;;;6.95;1.88;;;22.50;43.70;;;;;;5029327;28;20025;-85
2021/04/02 11:34:30;;;;;;;3.33;1.00;;;22.50;44.10;;;;;;5028686;28;20119;-82
2021/04/02 11:36:57;;;;;;;5.38;1.20;;;22.80;44.20;;;;;;5045073;28;20044;-83
2021/04/02 11:39:23;;;;;;;5.22;1.52;;;23.20;44.60;;;;;;5027247;28;20128;-82
2021/04/02 11:41:48;;;;;;;5.50;1.58;;;23.70;43.90;;;;;;5043271;28;20531;-82
2021/04/02 11:44:14;;;;;;;8.68;1.63;;;23.80;43.70;;;;;;5028869;28;20064;-83
2021/04/02 11:46:40;;;;;;;8.05;1.55;;;23.60;43.10;;;;;;5044854;28;20084;-86
2021/04/02 11:49:06;;;;;;;9.98;1.98;;;23.50;43.20;;;;;;5028846;28;20365;-85
2021/04/02 11:51:32;;;;;;;6.15;1.90;;;23.50;43.30;;;;;;5028516;28;20025;-81
2021/04/02 11:53:58;;;;;;;10.60;1.80;;;23.50;43.90;;;;;;5028682;28;20056;-87
2021/04/02 11:56:23;;;;;;;11.50;1.75;;;24.00;44.00;;;;;;5046104;28;20048;-83
2021/04/02 11:58:49;;;;;;;8.13;1.65;;;24.30;43.30;;;;;;5012372;28;20408;-84
2021/04/02 12:01:15;;;;;;;6.30;1.70;;;24.30;43.50;;;;;;5012905;28;20029;-80
2021/04/02 12:03:40;;;;;;;7.22;1.75;;;24.60;43.10;;;;;;5046291;28;20025;-87
2021/04/02 12:06:06;;;;;;;4.28;1.73;;;24.80;42.90;;;;;;5045340;28;20066;-84
2021/04/02 12:08:32;;;;;;;6.65;1.65;;;24.70;42.40;;;;;;5028290;28;20512;-85
2021/04/02 12:10:58;;;;;;;4.30;1.40;;;24.40;42.60;;;;;;5044617;28;20036;-83
2021/04/02 12:13:23;;;;;;;4.75;1.40;;;24.30;43.00;;;;;;5044734;28;20388;-85
2021/04/02 12:15:49;;;;;;;7.07;2.00;;;24.30;43.10;;;;;;5046439;28;20063;-83
2021/04/02 12:18:15;;;;;;;8.10;1.80;;;24.50;43.20;;;;;;5028037;28;20083;-85
2021/04/02 12:20:41;;;;;;;7.47;1.40;;;24.50;42.40;;;;;;5045339;28;20033;-85
2021/04/02 12:23:06;;;;;;;5.00;1.27;;;24.20;42.70;;;;;;5028955;28;20059;-86
2021/04/02 12:25:32;;;;;;;4.97;2.28;;;24.20;42.80;;;;;;5029411;28;20040;-83
2021/04/02 12:27:58;;;;;;;3.65;1.73;;;24.20;42.70;;;;;;5045729;28;20112;-86
2021/04/02 12:30:24;;;;;;;6.10;1.67;;;24.20;42.40;;;;;;5046692;28;20052;-84
2021/04/02 12:32:52;;;;;;;6.30;1.50;;;24.00;42.50;;;;;;5029923;28;20036;-84
2021/04/02 12:35:18;;;;;;;8.50;1.50;;;24.00;42.60;;;;;;5045690;28;20025;-85
2021/04/02 12:37:44;;;;;;;5.28;1.60;;;24.10;42.90;;;;;;5046285;28;20031;-74
2021/04/02 12:40:18;;;;;;;5.47;1.35;;;23.90;42.60;;;;;;5046055;28;20541;-78
2021/04/02 12:42:44;;;;;;;11.50;1.92;;;23.70;42.50;;;;;;5046187;28;20055;-85
2021/04/02 12:45:11;;;;;;;7.60;1.60;;;23.40;43.10;;;;;;5044428;28;20078;-84
2021/04/02 12:47:38;;;;;;;6.78;1.33;;;23.60;43.10;;;;;;5027782;28;20063;-88
2021/04/02 12:50:14;;;;;;;8.15;1.52;;;23.60;42.90;;;;;;5044440;28;20083;-84
2021/04/02 12:52:40;;;;;;;8.20;1.50;;;23.60;43.30;;;;;;5046792;28;20410;-82
2021/04/02 12:55:11;;;;;;;7.05;1.50;;;23.70;43.80;;;;;;5048562;28;20167;-81